Time;durP1;ratioP1;P1;durP2;ratioP2;P2;SDS_P1;SDS_P2;PMS_P1;PMS_P2;Temp;Humidity;BMP_temperature;BMP_pressure;BME280_temperature;BME280_humidity;BME280_pressure;Samples;Min_cycle;Max_cycle;Signal;HPM_P1;HPM_P2
2021/08/11 00:00:10;;;;;;;11.23;9.17;;;16.00;1.00;;;;;;5067016;28;20557;-74
2021/08/11 00:02:36;;;;;;;14.37;10.43;;;15.90;1.00;;;;;;5067501;28;21002;-74
2021/08/11 00:05:02;;;;;;;17.03;11.97;;;16.00;1.00;;;;;;5065825;28;20484;-74
2021/08/11 00:07:28;;;;;;;20.40;12.20;;;16.00;20.30;;;;;;5069341;28;20173;-74
2021/08/11 00:09:54;;;;;;;13.50;10.50;;;16.00;78.50;;;;;;5064551;28;21354;-74
2021/08/11 00:12:20;;;;;;;15.70;10.20;;;16.00;99.90;;;;;;5075073;28;20201;-74
2021/08/11 00:14:45;;;;;;;18.60;10.87;;;16.00;1.00;;;;;;5073249;28;20481;-74
2021/08/11 00:17:11;;;;;;;13.60;11.17;;;16.00;1.00;;;;;;5070848;28;20247;-74
2021/08/11 00:19:38;;;;;;;14.73;11.70;;;15.90;1.00;;;;;;5071100;28;20181;-74
2021/08/11 00:22:04;;;;;;;14.53;11.10;;;15.90;1.00;;;;;;5071276;28;20273;-74
2021/08/11 00:24:30;;;;;;;17.03;11.50;;;15.80;1.00;;;;;;5071475;28;20462;-74
2021/08/11 00:26:56;;;;;;;17.03;13.00;;;15.80;99.90;;;;;;5068098;28;21272;-74
2021/08/11 00:29:22;;;;;;;19.43;13.83;;;15.80;99.90;;;;;;5067325;28;20182;-74
2021/08/11 00:31:48;;;;;;;19.97;14.37;;;15.80;1.00;;;;;;5074121;28;20181;-74
2021/08/11 00:34:17;;;;;;;18.33;14.40;;;15.80;99.90;;;;;;5086042;28;20185;-74
2021/08/11 00:36:43;;;;;;;14.50;12.13;;;15.80;99.90;;;;;;5069048;28;20453;-74
2021/08/11 00:39:09;;;;;;;23.23;13.37;;;15.70;23.80;;;;;;5085779;28;20448;-74
2021/08/11 00:41:35;;;;;;;15.97;12.07;;;15.70;99.90;;;;;;5071161;28;20496;-74
2021/08/11 00:44:01;;;;;;;18.07;12.73;;;15.60;99.90;;;;;;5075102;28;20182;-74
2021/08/11 00:46:28;;;;;;;17.40;15.30;;;15.60;1.00;;;;;;5073813;28;20467;-74
2021/08/11 00:48:56;;;;;;;19.37;14.80;;;15.60;1.00;;;;;;5091169;27;20442;-74
2021/08/11 00:51:24;;;;;;;23.50;14.30;;;15.50;80.80;;;;;;5090001;28;20448;-74
2021/08/11 00:53:55;;;;;;;16.97;12.80;;;15.50;1.00;;;;;;5076927;28;20471;-74
2021/08/11 00:56:23;;;;;;;22.07;13.90;;;15.50;99.90;;;;;;5076697;28;20468;-74
2021/08/11 00:58:52;;;;;;;22.90;15.20;;;15.50;1.00;;;;;;5076051;28;20443;-74
2021/08/11 01:01:19;;;;;;;22.07;13.70;;;15.50;99.90;;;;;;5075351;28;20876;-74
2021/08/11 01:03:45;;;;;;;26.27;16.17;;;15.40;63.40;;;;;;5069595;28;20538;-74
2021/08/11 01:06:14;;;;;;;23.63;15.90;;;15.50;99.90;;;;;;5076312;28;20470;-74
2021/08/11 01:08:41;;;;;;;21.00;15.57;;;15.50;1.00;;;;;;5069705;28;20436;-74
2021/08/11 01:11:08;;;;;;;24.93;17.00;;;15.50;1.00;;;;;;5071517;28;20439;-74
2021/08/11 01:13:34;;;;;;;26.13;17.20;;;15.50;1.00;;;;;;5073359;28;20443;-75
2021/08/11 01:16:01;;;;;;;23.93;16.60;;;15.50;1.00;;;;;;5074573;28;20436;-74
2021/08/11 01:18:29;;;;;;;24.90;16.43;;;15.50;99.90;;;;;;5077026;28;20542;-74
2021/08/11 01:21:29;;;;;;;24.50;16.50;;;15.50;99.90;;;;;;5089575;27;20995;-74
2021/08/11 01:24:12;;;;;;;24.50;17.50;;;15.50;44.10;;;;;;5057819;28;20470;-74
2021/08/11 01:27:16;;;;;;;30.10;19.80;;;15.50;2.10;;;;;;5076184;28;21003;-74
2021/08/11 01:29:58;;;;;;;26.37;17.93;;;15.50;1.00;;;;;;5071504;28;21005;-74
2021/08/11 01:33:01;;;;;;;28.70;18.90;;;15.50;1.00;;;;;;5073738;28;20460;-74
2021/08/11 01:35:38;;;;;;;30.20;18.80;;;15.50;10.00;;;;;;5076788;28;20467;-74
2021/08/11 01:38:11;;;;;;;26.60;18.43;;;15.60;99.90;;;;;;5076472;28;20440;-74
2021/08/11 01:40:39;;;;;;;32.63;19.90;;;15.60;68.50;;;;;;5086933;27;20447;-74
2021/08/11 01:43:06;;;;;;;27.10;18.57;;;15.70;1.00;;;;;;5075913;28;20547;-74
2021/08/11 01:45:37;;;;;;;28.37;18.07;;;15.60;99.90;;;;;;5080230;27;20467;-74
2021/08/11 01:48:06;;;;;;;26.87;18.83;;;15.60;99.90;;;;;;5075380;28;20448;-74
2021/08/11 01:50:38;;;;;;;33.80;18.97;;;15.60;99.90;;;;;;5087829;28;20482;-74
2021/08/11 01:53:07;;;;;;;27.70;17.70;;;15.70;1.00;;;;;;5090211;27;20444;-74
2021/08/11 01:55:34;;;;;;;30.23;19.07;;;15.70;1.00;;;;;;5075709;28;20470;-74
2021/08/11 01:58:02;;;;;;;31.60;19.07;;;15.70;1.00;;;;;;5072716;28;20460;-74
2021/08/11 02:00:31;;;;;;;29.70;19.03;;;15.70;1.00;;;;;;5074482;28;20454;-74
2021/08/11 02:03:02;;;;;;;30.50;19.67;;;15.70;99.90;;;;;;5067893;28;20444;-74
2021/08/11 02:05:30;;;;;;;31.00;19.97;;;15.70;1.00;;;;;;5089500;27;20468;-74
2021/08/11 02:08:02;;;;;;;33.10;20.20;;;15.80;99.90;;;;;;5070857;28;20468;-74
2021/08/11 02:10:30;;;;;;;33.83;22.27;;;15.80;99.90;;;;;;5070252;28;21180;-74
2021/08/11 02:12:59;;;;;;;35.87;20.70;;;15.80;1.00;;;;;;5071728;28;20451;-74
2021/08/11 02:15:25;;;;;;;35.13;21.70;;;15.80;1.00;;;;;;5088008;27;20456;-74
2021/08/11 02:17:52;;;;;;;38.40;22.30;;;15.90;99.90;;;;;;5071882;28;20501;-74
2021/08/11 02:20:19;;;;;;;32.13;20.03;;;15.90;99.90;;;;;;5072112;28;20177;-74
2021/08/11 02:22:45;;;;;;;35.40;21.87;;;15.90;99.90;;;;;;5070856;28;20444;-74
2021/08/11 02:25:13;;;;;;;33.73;20.93;;;15.80;99.90;;;;;;5074395;28;20462;-74
2021/08/11 02:27:56;;;;;;;32.57;20.80;;;15.80;99.90;;;;;;5076018;28;20194;-74
2021/08/11 02:30:26;;;;;;;34.13;20.63;;;15.80;99.90;;;;;;5089866;27;20477;-74
2021/08/11 02:33:26;;;;;;;33.33;20.70;;;15.70;99.90;;;;;;5068375;28;20452;-74
2021/08/11 02:35:55;;;;;;;40.30;22.87;;;15.70;99.90;;;;;;5074606;28;20548;-74
2021/08/11 02:38:35;;;;;;;30.83;19.90;;;15.60;99.90;;;;;;5076449;28;21041;-74
2021/08/11 02:41:09;;;;;;;38.10;22.30;;;15.70;1.00;;;;;;5064665;28;21148;-74
2021/08/11 02:43:46;;;;;;;42.43;22.67;;;15.70;1.00;;;;;;5072589;28;20968;-74
2021/08/11 02:46:16;;;;;;;37.20;22.10;;;15.60;1.00;;;;;;5073715;28;22008;-74
2021/08/11 02:48:52;;;;;;;37.40;22.00;;;15.60;99.90;;;;;;5074781;28;21316;-74
2021/08/11 02:51:18;;;;;;;37.63;22.00;;;15.60;99.90;;;;;;5075039;28;21041;-74
2021/08/11 02:53:45;;;;;;;43.23;23.27;;;15.60;99.90;;;;;;5065670;28;21233;-74
2021/08/11 02:56:14;;;;;;;39.43;23.80;;;15.70;99.90;;;;;;5069880;28;20491;-74
2021/08/11 02:58:41;;;;;;;39.17;21.33;;;15.60;99.90;;;;;;5069769;28;20936;-74
2021/08/11 03:01:07;;;;;;;35.17;23.77;;;15.60;99.90;;;;;;5073703;28;20435;-75
2021/08/11 03:03:33;;;;;;;37.30;21.40;;;15.60;99.90;;;;;;5073782;28;20462;-74
2021/08/11 03:05:59;;;;;;;40.07;23.03;;;15.60;99.90;;;;;;5075725;28;20407;-74
2021/08/11 03:08:27;;;;;;;34.20;22.07;;;15.60;99.90;;;;;;5069295;28;20441;-74
2021/08/11 03:10:53;;;;;;;34.80;20.77;;;15.50;99.90;;;;;;5072825;28;20949;-74
2021/08/11 03:13:21;;;;;;;33.40;20.87;;;15.50;99.90;;;;;;5068297;28;20456;-74
2021/08/11 03:15:49;;;;;;;34.60;21.10;;;15.50;99.90;;;;;;5086274;27;20217;-75
2021/08/11 03:18:16;;;;;;;36.13;22.07;;;15.60;99.90;;;;;;5060440;28;20445;-74
2021/08/11 03:20:42;;;;;;;29.30;19.93;;;15.50;99.90;;;;;;5075298;28;20491;-74
2021/08/11 03:23:13;;;;;;;35.00;21.17;;;15.50;99.90;;;;;;5063987;28;20455;-74
2021/08/11 03:25:42;;;;;;;34.37;20.40;;;15.50;99.90;;;;;;5088593;27;20524;-74
2021/08/11 03:28:09;;;;;;;31.90;22.50;;;15.50;99.90;;;;;;5088573;27;20498;-74
2021/08/11 03:30:36;;;;;;;42.23;22.07;;;15.50;99.90;;;;;;5067859;28;20436;-74
2021/08/11 03:33:06;;;;;;;38.90;21.30;;;15.50;99.90;;;;;;5074984;28;20489;-74
2021/08/11 03:35:32;;;;;;;31.40;20.07;;;15.50;99.90;;;;;;5076275;28;20436;-74
2021/08/11 03:37:57;;;;;;;32.40;21.10;;;15.40;99.90;;;;;;5074108;28;20443;-74
2021/08/11 03:40:24;;;;;;;32.30;21.43;;;15.50;99.90;;;;;;5072133;28;20193;-74
2021/08/11 03:42:49;;;;;;;32.37;20.30;;;15.50;99.90;;;;;;5072456;28;20567;-74
2021/08/11 03:45:15;;;;;;;34.37;22.10;;;15.50;99.90;;;;;;5074600;28;21446;-74
2021/08/11 03:47:42;;;;;;;36.70;23.10;;;15.50;99.90;;;;;;5079103;28;20174;-73
2021/08/11 03:50:13;;;;;;;33.83;21.00;;;15.50;99.90;;;;;;5071815;28;20896;-73
2021/08/11 03:52:42;;;;;;;34.30;21.73;;;15.50;99.90;;;;;;5080521;28;20424;-73
2021/08/11 03:55:10;;;;;;;29.37;17.60;;;15.40;99.90;;;;;;5075037;28;20443;-73
2021/08/11 03:57:36;;;;;;;35.13;20.87;;;15.40;99.90;;;;;;5075889;28;20459;-74
2021/08/11 04:00:04;;;;;;;31.00;20.37;;;15.40;99.90;;;;;;5076586;28;20440;-74
2021/08/11 04:02:40;;;;;;;31.07;20.23;;;15.40;99.90;;;;;;5074602;28;20435;-74
2021/08/11 04:05:07;;;;;;;30.70;20.80;;;15.40;99.90;;;;;;5073315;28;20501;-74
2021/08/11 04:07:35;;;;;;;36.70;20.30;;;15.40;99.90;;;;;;5078256;28;20798;-74
2021/08/11 04:10:01;;;;;;;34.33;20.57;;;15.40;99.90;;;;;;5076552;28;20452;-73
2021/08/11 04:12:27;;;;;;;28.97;19.63;;;15.30;99.90;;;;;;5078250;28;20981;-74
2021/08/11 04:14:53;;;;;;;39.57;22.07;;;15.40;99.90;;;;;;5077292;28;20475;-74
2021/08/11 04:17:18;;;;;;;31.17;20.40;;;15.30;99.90;;;;;;5070307;28;20666;-74
2021/08/11 04:19:44;;;;;;;34.53;21.43;;;15.30;99.90;;;;;;5075868;28;20194;-74
2021/08/11 04:22:10;;;;;;;31.40;20.40;;;15.30;99.90;;;;;;5077549;28;20193;-74
2021/08/11 04:24:35;;;;;;;29.63;18.60;;;15.30;99.90;;;;;;5078114;28;20193;-74
2021/08/11 04:27:01;;;;;;;33.77;20.73;;;15.20;99.90;;;;;;5082260;28;20209;-74
2021/08/11 04:29:27;;;;;;;39.17;22.37;;;15.20;99.90;;;;;;5081534;28;20197;-74
2021/08/11 04:31:52;;;;;;;31.93;19.97;;;15.20;99.90;;;;;;5081217;28;20276;-74
2021/08/11 04:34:18;;;;;;;30.63;18.33;;;15.30;99.90;;;;;;5077780;28;20248;-73
2021/08/11 04:36:44;;;;;;;35.30;20.43;;;15.30;99.90;;;;;;5079396;28;20318;-73
2021/08/11 04:39:10;;;;;;;33.87;20.57;;;15.30;99.90;;;;;;5077647;28;20455;-73
2021/08/11 04:41:35;;;;;;;34.63;21.40;;;15.30;99.90;;;;;;5077646;28;20190;-73
2021/08/11 04:44:03;;;;;;;27.80;16.50;;;15.30;99.90;;;;;;5080699;28;20325;-73
2021/08/11 04:46:28;;;;;;;29.40;19.17;;;15.20;99.90;;;;;;5086921;28;20332;-73
2021/08/11 04:48:54;;;;;;;26.70;17.97;;;15.30;99.90;;;;;;5075324;28;20440;-73
2021/08/11 04:51:21;;;;;;;27.83;17.73;;;15.20;99.90;;;;;;5081782;28;20455;-73
2021/08/11 04:53:46;;;;;;;36.63;20.10;;;15.10;99.90;;;;;;5085557;28;20667;-73
2021/08/11 04:56:12;;;;;;;37.10;20.87;;;15.10;99.90;;;;;;5079601;28;20451;-73
2021/08/11 04:58:38;;;;;;;35.60;21.50;;;15.20;99.90;;;;;;5078894;28;20216;-73
2021/08/11 05:01:04;;;;;;;34.17;21.00;;;15.30;99.90;;;;;;5076891;28;20189;-74
2021/08/11 05:03:37;;;;;;;34.60;20.93;;;15.30;99.90;;;;;;5068273;28;20468;-73
2021/08/11 05:06:06;;;;;;;43.43;21.90;;;15.30;99.90;;;;;;5069175;28;20297;-73
2021/08/11 05:08:35;;;;;;;39.50;21.10;;;15.30;99.90;;;;;;5077105;28;20436;-74
2021/08/11 05:11:02;;;;;;;42.70;22.53;;;15.40;99.90;;;;;;5076370;28;20447;-74
2021/08/11 05:13:28;;;;;;;33.67;21.47;;;15.40;99.90;;;;;;5075633;28;20517;-73
2021/08/11 05:15:53;;;;;;;42.00;22.37;;;15.40;99.90;;;;;;5079101;28;20448;-73
2021/08/11 05:18:21;;;;;;;39.67;21.80;;;15.50;99.90;;;;;;5072758;28;20201;-74
2021/08/11 05:20:47;;;;;;;36.57;21.00;;;15.50;99.90;;;;;;5076684;28;20194;-72
2021/08/11 05:23:13;;;;;;;33.83;20.50;;;15.50;99.90;;;;;;5078054;28;20461;-73
2021/08/11 05:25:41;;;;;;;36.77;19.90;;;15.60;99.90;;;;;;5083065;28;20245;-73
2021/08/11 05:28:06;;;;;;;30.57;18.97;;;15.60;99.90;;;;;;5081622;28;20210;-72
2021/08/11 05:30:32;;;;;;;40.67;21.20;;;15.60;99.90;;;;;;5081749;28;20889;-73
2021/08/11 05:32:58;;;;;;;33.87;18.80;;;15.70;99.90;;;;;;5080405;28;20281;-73
2021/08/11 05:35:23;;;;;;;33.87;19.50;;;15.70;99.90;;;;;;5084842;28;20186;-73
2021/08/11 05:37:49;;;;;;;28.73;17.43;;;15.70;99.90;;;;;;5079202;28;20292;-72
2021/08/11 05:40:16;;;;;;;29.80;19.10;;;15.80;99.90;;;;;;5078152;28;20684;-73
2021/08/11 05:42:43;;;;;;;29.27;16.97;;;15.70;99.90;;;;;;5083807;28;20199;-73
2021/08/11 05:45:09;;;;;;;33.77;17.70;;;15.70;99.90;;;;;;5083687;28;20475;-72
2021/08/11 05:47:34;;;;;;;30.27;17.57;;;15.70;99.90;;;;;;5082323;28;20494;-73
2021/08/11 05:50:01;;;;;;;38.27;18.83;;;15.80;99.90;;;;;;5081959;28;20463;-72
2021/08/11 05:52:30;;;;;;;31.60;16.70;;;15.70;99.90;;;;;;5078328;28;20189;-72
2021/08/11 05:54:58;;;;;;;32.03;17.50;;;15.70;99.90;;;;;;5081695;28;21122;-72
2021/08/11 05:57:25;;;;;;;30.90;17.03;;;15.70;99.90;;;;;;5080350;28;20459;-72
2021/08/11 05:59:50;;;;;;;28.60;16.70;;;15.70;99.90;;;;;;5080854;28;21019;-72
2021/08/11 06:02:16;;;;;;;31.47;17.00;;;15.70;99.90;;;;;;5076584;28;20477;-72
2021/08/11 06:04:52;;;;;;;31.73;17.17;;;15.70;99.90;;;;;;5076901;28;20210;-72
2021/08/11 06:07:19;;;;;;;27.50;15.17;;;15.80;99.90;;;;;;5076132;28;21021;-73
2021/08/11 06:09:45;;;;;;;31.03;18.10;;;15.90;99.90;;;;;;5078124;28;20197;-72
2021/08/11 06:12:13;;;;;;;33.30;17.50;;;16.10;99.90;;;;;;5076698;28;20444;-73
2021/08/11 06:14:41;;;;;;;32.87;18.17;;;16.10;99.90;;;;;;5074062;28;20188;-73
2021/08/11 06:17:07;;;;;;;32.43;16.50;;;16.20;99.90;;;;;;5076459;28;20534;-73
2021/08/11 06:19:33;;;;;;;29.03;16.53;;;16.30;99.90;;;;;;5075456;28;21013;-74
2021/08/11 06:21:59;;;;;;;29.40;17.40;;;16.30;99.90;;;;;;5068944;28;20459;-74
2021/08/11 06:24:25;;;;;;;29.20;17.27;;;16.30;99.90;;;;;;5069960;28;20205;-72
2021/08/11 06:26:51;;;;;;;31.97;16.40;;;16.20;99.90;;;;;;5074360;28;20476;-72
2021/08/11 06:29:17;;;;;;;28.00;15.50;;;16.10;99.90;;;;;;5075784;28;20221;-73
2021/08/11 06:31:42;;;;;;;27.20;16.77;;;16.20;99.90;;;;;;5073706;28;21019;-73
2021/08/11 06:34:08;;;;;;;28.73;16.40;;;16.30;99.90;;;;;;5071775;28;20529;-74
2021/08/11 06:36:35;;;;;;;28.50;15.30;;;16.40;99.90;;;;;;5073857;28;20189;-74
2021/08/11 06:39:00;;;;;;;26.50;16.27;;;16.40;99.90;;;;;;5077287;28;20443;-74
2021/08/11 06:41:26;;;;;;;26.30;15.73;;;16.50;99.90;;;;;;5073200;28;20254;-73
2021/08/11 06:44:02;;;;;;;30.90;17.87;;;16.50;99.90;;;;;;5071305;28;20262;-73
2021/08/11 06:46:29;;;;;;;34.80;17.10;;;16.50;99.90;;;;;;5072330;28;20462;-73
2021/08/11 06:48:55;;;;;;;27.17;15.60;;;16.50;99.90;;;;;;5071487;28;20436;-74
2021/08/11 06:51:21;;;;;;;26.67;16.53;;;16.70;99.90;;;;;;5074083;28;21052;-73
2021/08/11 06:53:47;;;;;;;28.87;18.00;;;17.00;99.90;;;;;;5072341;28;20183;-74
2021/08/11 06:56:12;;;;;;;27.97;17.83;;;17.20;99.90;;;;;;5071877;28;20187;-73
2021/08/11 06:58:38;;;;;;;28.23;18.50;;;17.40;99.90;;;;;;5071552;28;20212;-73
2021/08/11 07:01:04;;;;;;;26.53;16.40;;;17.50;99.90;;;;;;5070532;28;20190;-73
2021/08/11 07:03:30;;;;;;;24.93;15.90;;;17.60;99.90;;;;;;5070173;28;20263;-73
2021/08/11 07:05:55;;;;;;;28.90;17.03;;;17.80;99.90;;;;;;5073154;28;20483;-73
2021/08/11 07:08:22;;;;;;;26.77;16.43;;;17.90;99.90;;;;;;5073863;28;20178;-73
2021/08/11 07:10:49;;;;;;;24.60;17.23;;;18.10;99.90;;;;;;5074047;28;20436;-73
2021/08/11 07:13:16;;;;;;;24.43;15.50;;;18.10;1.00;;;;;;5071700;28;20463;-73
2021/08/11 07:15:45;;;;;;;24.40;16.17;;;18.30;1.00;;;;;;5072618;28;20443;-73
2021/08/11 07:18:15;;;;;;;27.30;17.40;;;18.30;99.90;;;;;;5073740;28;20462;-73
2021/08/11 07:20:41;;;;;;;22.70;15.70;;;18.20;99.90;;;;;;5073968;28;20471;-73
2021/08/11 07:23:07;;;;;;;22.33;16.00;;;18.20;99.90;;;;;;5074644;28;20443;-73
2021/08/11 07:25:33;;;;;;;26.70;16.33;;;18.30;99.90;;;;;;5056612;28;20464;-73
2021/08/11 07:27:59;;;;;;;25.27;15.47;;;18.30;99.90;;;;;;5071098;28;20193;-73
2021/08/11 07:30:25;;;;;;;26.57;16.27;;;18.40;99.90;;;;;;5060202;28;20185;-73
2021/08/11 07:32:50;;;;;;;26.03;15.87;;;18.70;99.90;;;;;;5065463;28;20182;-74
2021/08/11 07:35:17;;;;;;;23.60;15.87;;;18.70;99.90;;;;;;5063933;28;20283;-73
2021/08/11 07:37:45;;;;;;;26.13;15.67;;;18.70;99.90;;;;;;5071798;28;20182;-74
2021/08/11 07:40:13;;;;;;;28.97;15.67;;;18.90;89.50;;;;;;5071607;28;20455;-74
2021/08/11 07:42:40;;;;;;;22.27;15.17;;;18.90;39.70;;;;;;5069250;28;20463;-73
2021/08/11 07:45:07;;;;;;;20.80;13.50;;;19.20;39.40;;;;;;5072833;28;20478;-74
2021/08/11 07:47:32;;;;;;;23.60;16.10;;;19.10;13.90;;;;;;5075441;28;20494;-74
2021/08/11 07:49:58;;;;;;;20.17;15.00;;;19.10;34.20;;;;;;5073333;28;20568;-75
2021/08/11 07:52:24;;;;;;;21.80;16.03;;;19.10;17.30;;;;;;5071007;28;20980;-74
2021/08/11 07:54:50;;;;;;;19.37;14.00;;;19.10;16.90;;;;;;5067841;28;20194;-74
2021/08/11 07:57:15;;;;;;;32.40;13.93;;;19.20;1.00;;;;;;5071787;28;20198;-73
2021/08/11 07:59:41;;;;;;;74.20;22.27;;;19.30;1.00;;;;;;5059960;28;20297;-75
2021/08/11 08:02:10;;;;;;;39.07;18.23;;;19.40;1.00;;;;;;5069262;28;20189;-74
2021/08/11 08:04:37;;;;;;;30.57;14.80;;;19.50;1.00;;;;;;5072006;28;20205;-73
2021/08/11 08:07:03;;;;;;;20.80;14.07;;;19.40;1.00;;;;;;5068910;28;20483;-75
2021/08/11 08:09:29;;;;;;;20.87;14.57;;;19.30;1.00;;;;;;5071142;28;20441;-74
2021/08/11 08:11:55;;;;;;;19.47;15.27;;;19.30;1.00;;;;;;5071043;28;20187;-74
2021/08/11 08:14:20;;;;;;;17.93;14.13;;;19.20;1.00;;;;;;5071247;28;20194;-75
2021/08/11 08:16:46;;;;;;;16.33;12.63;;;19.10;1.00;;;;;;5069972;28;20183;-72
2021/08/11 08:19:12;;;;;;;23.37;16.77;;;19.10;1.00;;;;;;5068184;28;20189;-73
2021/08/11 08:21:37;;;;;;;27.70;17.83;;;19.10;1.00;;;;;;5072613;28;20305;-71
2021/08/11 08:24:04;;;;;;;19.00;13.70;;;19.10;1.00;;;;;;5071205;28;20213;-72
2021/08/11 08:26:29;;;;;;;19.80;13.20;;;19.30;1.00;;;;;;5075211;28;20548;-72
2021/08/11 08:28:55;;;;;;;15.97;12.50;;;19.40;1.00;;;;;;5074465;28;20613;-71
2021/08/11 08:31:21;;;;;;;12.33;9.73;;;19.40;1.00;;;;;;5070674;28;20276;-72
2021/08/11 08:33:47;;;;;;;14.23;10.60;;;19.60;1.00;;;;;;5073355;28;20508;-73
2021/08/11 08:36:12;;;;;;;11.63;9.73;;;19.60;1.00;;;;;;5068047;28;21056;-72
2021/08/11 08:38:38;;;;;;;13.33;9.70;;;19.70;1.00;;;;;;5071444;28;21285;-73
2021/08/11 08:41:04;;;;;;;11.07;8.80;;;19.90;1.00;;;;;;5073280;28;20231;-72
2021/08/11 08:43:30;;;;;;;10.40;9.10;;;20.00;1.00;;;;;;5068484;28;20208;-73
2021/08/11 08:45:55;;;;;;;12.13;8.70;;;20.00;1.00;;;;;;5075600;28;20248;-73
2021/08/11 08:48:21;;;;;;;10.43;8.67;;;19.90;1.00;;;;;;5073447;28;20178;-73
2021/08/11 08:50:51;;;;;;;11.40;9.10;;;19.80;1.00;;;;;;5072138;28;20556;-73
2021/08/11 08:53:22;;;;;;;14.93;9.90;;;19.70;1.00;;;;;;5073677;28;20476;-73
2021/08/11 08:55:52;;;;;;;17.73;11.20;;;19.60;1.00;;;;;;5079069;28;20842;-73
2021/08/11 08:58:21;;;;;;;12.43;9.30;;;19.70;1.00;;;;;;5087655;28;20521;-73
2021/08/11 09:00:48;;;;;;;14.53;9.87;;;19.70;1.00;;;;;;5064349;28;20906;-72
2021/08/11 09:03:15;;;;;;;14.40;10.10;;;19.70;1.00;;;;;;5067147;28;20440;-72
2021/08/11 09:05:41;;;;;;;11.33;8.93;;;19.70;1.00;;;;;;5071513;28;20478;-73
2021/08/11 09:08:08;;;;;;;11.43;8.67;;;19.70;1.00;;;;;;5073357;28;20444;-72
2021/08/11 09:10:39;;;;;;;12.63;9.10;;;19.80;1.00;;;;;;5075100;28;20194;-72
2021/08/11 09:13:11;;;;;;;12.20;8.10;;;20.00;1.00;;;;;;5090212;28;20465;-73
2021/08/11 09:15:45;;;;;;;9.80;7.80;;;20.10;1.00;;;;;;5085651;28;20463;-73
2021/08/11 09:18:18;;;;;;;9.67;8.17;;;20.10;1.00;;;;;;5082874;28;21508;-73
2021/08/11 09:20:59;;;;;;;8.90;7.10;;;20.20;1.00;;;;;;5077299;28;20444;-73
2021/08/11 09:23:38;;;;;;;8.10;7.10;;;20.50;1.00;;;;;;5079959;28;20435;-73
2021/08/11 09:26:12;;;;;;;11.53;8.60;;;20.80;1.00;;;;;;5060329;28;20510;-72
2021/08/11 09:28:40;;;;;;;10.30;8.00;;;21.00;1.00;;;;;;5062485;28;20451;-73
2021/08/11 09:31:26;;;;;;;10.17;8.03;;;20.90;1.00;;;;;;5075976;28;20444;-73
2021/08/11 09:33:57;;;;;;;10.57;6.83;;;20.90;1.00;;;;;;5078132;28;20439;-73
2021/08/11 09:36:24;;;;;;;8.77;6.47;;;20.80;1.00;;;;;;5074633;28;20453;-73
2021/08/11 09:38:54;;;;;;;9.27;8.27;;;20.70;1.00;;;;;;5074466;28;20555;-73
2021/08/11 09:41:19;;;;;;;8.23;6.17;;;20.50;1.00;;;;;;5076816;28;20469;-74
2021/08/11 09:43:45;;;;;;;7.10;6.40;;;20.30;1.00;;;;;;5075989;28;20464;-74
2021/08/11 09:46:11;;;;;;;7.90;6.67;;;20.40;1.00;;;;;;5077909;28;20198;-73
2021/08/11 09:48:41;;;;;;;9.53;7.57;;;20.20;1.00;;;;;;5073207;28;20825;-73
2021/08/11 09:51:10;;;;;;;11.27;7.37;;;20.20;1.00;;;;;;5076183;28;20463;-73
2021/08/11 09:53:38;;;;;;;9.10;6.93;;;20.20;1.00;;;;;;5072393;28;20439;-73
2021/08/11 09:56:06;;;;;;;8.37;7.50;;;20.50;1.00;;;;;;5081845;28;20916;-73
2021/08/11 09:58:38;;;;;;;9.40;7.03;;;20.70;1.00;;;;;;5075722;28;20491;-73
2021/08/11 10:01:24;;;;;;;9.43;6.60;;;20.90;1.00;;;;;;5073759;28;20568;-73
2021/08/11 10:04:02;;;;;;;8.80;6.40;;;20.70;1.00;;;;;;5075434;28;20467;-73
2021/08/11 10:06:28;;;;;;;7.70;6.37;;;20.70;1.00;;;;;;5075718;28;20495;-73
2021/08/11 10:08:54;;;;;;;8.10;6.57;;;20.60;1.00;;;;;;5073023;28;20470;-73
2021/08/11 10:11:40;;;;;;;8.00;5.57;;;20.60;1.00;;;;;;5075250;28;20589;-73
2021/08/11 10:14:09;;;;;;;9.00;6.37;;;20.40;1.00;;;;;;5078364;28;20456;-73
2021/08/11 10:16:35;;;;;;;8.43;6.47;;;20.30;1.00;;;;;;5076835;28;20436;-73
2021/08/11 10:19:03;;;;;;;7.57;5.97;;;20.30;1.00;;;;;;5072566;28;20445;-73
2021/08/11 10:21:33;;;;;;;7.57;5.53;;;20.20;1.00;;;;;;5078340;28;20447;-74
2021/08/11 10:24:04;;;;;;;8.10;5.97;;;20.20;1.00;;;;;;5074758;28;20428;-73
2021/08/11 10:26:31;;;;;;;7.67;5.57;;;20.20;1.00;;;;;;5073755;28;20806;-73
2021/08/11 10:28:58;;;;;;;6.90;5.50;;;20.20;1.00;;;;;;5074249;28;20472;-73
2021/08/11 10:31:24;;;;;;;7.50;5.43;;;20.40;1.00;;;;;;5075188;28;20443;-73
2021/08/11 10:33:51;;;;;;;9.50;5.90;;;20.50;1.00;;;;;;5072500;28;20448;-73
2021/08/11 10:36:18;;;;;;;6.53;5.10;;;20.60;1.00;;;;;;5074693;28;20448;-73
2021/08/11 10:38:45;;;;;;;6.20;5.60;;;20.80;1.00;;;;;;5073113;28;22752;-73
2021/08/11 10:41:13;;;;;;;6.70;5.20;;;20.90;1.00;;;;;;5071259;28;20447;-73
2021/08/11 10:43:40;;;;;;;5.43;4.77;;;21.30;1.00;;;;;;5073262;28;20513;-73
2021/08/11 10:46:10;;;;;;;5.87;5.27;;;21.80;1.00;;;;;;5074584;28;20872;-73
2021/08/11 10:48:36;;;;;;;5.50;4.53;;;22.00;1.00;;;;;;5073055;28;20435;-74
2021/08/11 10:51:02;;;;;;;4.73;3.83;;;22.10;1.00;;;;;;5073689;28;20501;-74
2021/08/11 10:53:28;;;;;;;7.60;4.90;;;22.10;1.00;;;;;;5075982;28;20239;-73
2021/08/11 10:55:54;;;;;;;4.60;4.07;;;22.20;1.00;;;;;;5072056;28;20444;-73
2021/08/11 10:58:39;;;;;;;4.83;4.17;;;22.30;1.00;;;;;;5076319;28;20220;-73
2021/08/11 11:01:33;;;;;;;5.63;4.03;;;22.40;1.00;;;;;;5071479;28;20447;-74
2021/08/11 11:03:59;;;;;;;6.07;4.13;;;22.70;1.00;;;;;;5072757;28;20468;-73
2021/08/11 11:07:13;;;;;;;5.87;4.20;;;22.30;1.00;;;;;;5071579;28;20455;-73
2021/08/11 11:09:40;;;;;;;8.40;4.50;;;22.30;1.00;;;;;;5069658;28;21021;-73
2021/08/11 11:12:16;;;;;;;5.33;4.73;;;22.50;1.00;;;;;;5070863;28;20439;-73
2021/08/11 11:14:58;;;;;;;4.43;3.63;;;22.60;1.00;;;;;;5074423;28;20598;-73
2021/08/11 11:17:26;;;;;;;7.53;4.17;;;22.70;1.00;;;;;;5065102;28;20475;-73
2021/08/11 11:20:08;;;;;;;4.80;3.50;;;22.70;1.00;;;;;;5071740;28;20440;-73
2021/08/11 11:22:35;;;;;;;4.50;3.70;;;22.70;1.00;;;;;;5073095;28;20455;-73
2021/08/11 11:25:01;;;;;;;4.37;3.87;;;22.70;1.00;;;;;;5076241;28;20451;-74
2021/08/11 11:27:42;;;;;;;5.90;3.83;;;22.90;1.00;;;;;;5071789;28;20537;-73
2021/08/11 11:30:14;;;;;;;5.53;4.00;;;23.20;1.00;;;;;;5076962;28;20621;-73
2021/08/11 11:32:41;;;;;;;6.27;4.93;;;23.10;1.00;;;;;;5074265;28;20472;-73
2021/08/11 11:35:16;;;;;;;4.17;3.73;;;22.90;1.00;;;;;;5072914;28;20448;-73
2021/08/11 11:37:42;;;;;;;5.90;4.50;;;22.40;1.00;;;;;;5071122;28;20474;-73
2021/08/11 11:40:10;;;;;;;4.20;3.73;;;22.00;1.00;;;;;;5068689;28;20481;-73
2021/08/11 11:42:36;;;;;;;4.70;4.10;;;21.80;1.00;;;;;;5072476;28;21131;-74
2021/08/11 11:45:13;;;;;;;4.47;4.07;;;21.50;1.00;;;;;;5072826;28;20870;-73
2021/08/11 11:47:42;;;;;;;5.27;4.30;;;21.40;1.00;;;;;;5076111;28;20485;-73
2021/08/11 11:50:24;;;;;;;6.13;4.10;;;21.40;1.00;;;;;;5071036;28;20888;-73
2021/08/11 11:52:52;;;;;;;6.60;4.17;;;21.50;1.00;;;;;;5074778;28;20444;-73
2021/08/11 11:55:41;;;;;;;5.50;4.00;;;21.90;1.00;;;;;;5075471;28;20530;-73
2021/08/11 11:58:18;;;;;;;4.57;4.10;;;22.10;1.00;;;;;;5070215;28;20437;-73
2021/08/11 12:00:46;;;;;;;4.50;3.83;;;22.20;1.00;;;;;;5064970;28;20460;-73
2021/08/11 12:03:12;;;;;;;5.87;4.47;;;22.20;1.00;;;;;;5066033;28;20450;-73
2021/08/11 12:05:52;;;;;;;4.00;3.30;;;22.50;1.00;;;;;;5070907;28;20480;-73
2021/08/11 12:08:20;;;;;;;4.77;4.30;;;22.50;1.00;;;;;;5070845;28;20447;-74
2021/08/11 12:10:48;;;;;;;4.20;3.67;;;22.40;1.00;;;;;;5073898;28;20440;-73
2021/08/11 12:13:14;;;;;;;4.10;3.70;;;22.60;1.00;;;;;;5071536;28;20447;-73
2021/08/11 12:15:43;;;;;;;5.50;4.30;;;22.80;1.00;;;;;;5071540;28;20479;-74
2021/08/11 12:18:16;;;;;;;5.30;4.20;;;23.00;1.00;;;;;;5069103;28;20458;-73
2021/08/11 12:20:43;;;;;;;6.53;4.03;;;23.10;1.00;;;;;;5070831;28;20466;-73
2021/08/11 12:23:27;;;;;;;4.43;3.67;;;22.90;1.00;;;;;;5071360;28;20450;-71
2021/08/11 12:26:04;;;;;;;4.40;3.80;;;22.80;1.00;;;;;;5070258;28;20467;-73
2021/08/11 12:28:36;;;;;;;4.00;3.60;;;22.60;1.00;;;;;;5070380;28;20914;-73
2021/08/11 12:31:26;;;;;;;5.90;3.77;;;22.40;1.00;;;;;;5068554;28;20435;-73
2021/08/11 12:33:58;;;;;;;6.50;4.47;;;22.10;1.00;;;;;;5069204;28;20440;-73
2021/08/11 12:36:35;;;;;;;5.60;4.10;;;22.10;1.00;;;;;;5072436;28;20995;-74
2021/08/11 12:39:01;;;;;;;4.17;3.77;;;22.40;1.00;;;;;;5074178;28;20996;-73
2021/08/11 12:41:28;;;;;;;5.27;4.10;;;22.40;1.00;;;;;;5073662;28;20440;-73
2021/08/11 12:43:56;;;;;;;3.77;3.37;;;22.30;1.00;;;;;;5077502;28;20197;-74
2021/08/11 12:46:45;;;;;;;5.00;4.37;;;22.10;1.00;;;;;;5074456;28;20990;-73